createdAt,value
2016-09-28T00:00:22.319Z,26.39
2016-09-28T00:01:02.975Z,26.4
2016-09-28T00:01:43.656Z,26.43
2016-09-28T00:02:24.377Z,26.35
2016-09-28T00:03:05.076Z,26.45
2016-09-28T00:03:45.762Z,26.4
2016-09-28T00:04:26.453Z,26.39
2016-09-28T00:05:07.124Z,26.45
2016-09-28T00:05:47.774Z,26.33
2016-09-28T00:06:28.518Z,26.45
2016-09-28T00:07:09.233Z,26.35
2016-09-28T00:07:49.908Z,26.37
2016-09-28T00:08:30.661Z,26.4
2016-09-28T00:09:11.356Z,26.43
2016-09-28T00:09:52.003Z,26.39
2016-09-28T00:10:32.697Z,26.45
2016-09-28T00:11:13.376Z,26.43
2016-09-28T00:11:54.077Z,26.45
2016-09-28T00:12:34.843Z,26.44
2016-09-28T00:13:15.549Z,26.4
2016-09-28T00:13:56.268Z,26.44
2016-09-28T00:14:36.975Z,26.35
2016-09-28T00:15:17.682Z,26.36
2016-09-28T00:15:58.369Z,26.4
2016-09-28T00:16:39.116Z,26.35
2016-09-28T00:17:19.827Z,26.39
2016-09-28T00:18:00.527Z,26.43
2016-09-28T00:18:41.257Z,26.36
2016-09-28T00:19:21.940Z,26.36
2016-09-28T00:20:02.623Z,26.3
2016-09-28T00:20:43.321Z,26.5
2016-09-28T00:21:23.982Z,26.5
2016-09-28T00:22:04.693Z,26.37
2016-09-28T00:22:45.338Z,26.5
2016-09-28T00:23:26.065Z,26.5
2016-09-28T00:24:06.715Z,26.43
2016-09-28T00:24:47.397Z,26.39
2016-09-28T00:25:28.117Z,26.44
2016-09-28T00:26:08.778Z,26.43
2016-09-28T00:26:49.428Z,26.39
2016-09-28T00:27:30.110Z,26.48
2016-09-28T00:28:10.781Z,26.44
2016-09-28T00:28:51.468Z,26.33
2016-09-28T00:29:32.246Z,26.43
2016-09-28T00:30:12.974Z,26.36
2016-09-28T00:30:53.666Z,26.44
2016-09-28T00:31:34.328Z,26.36
2016-09-28T00:32:15.041Z,26.47
2016-09-28T00:32:55.708Z,26.37
2016-09-28T00:33:36.356Z,26.36
2016-09-28T00:34:17.041Z,26.36
2016-09-28T00:34:57.763Z,26.32
2016-09-28T00:35:38.424Z,26.36
2016-09-28T00:36:19.102Z,26.48
2016-09-28T00:36:59.856Z,26.43
2016-09-28T00:37:40.543Z,26.47
2016-09-28T00:38:21.262Z,26.37
2016-09-28T00:39:01.904Z,26.37
2016-09-28T00:39:42.591Z,26.4
2016-09-28T00:40:23.249Z,26.45
2016-09-28T00:41:03.926Z,26.43
2016-09-28T00:41:44.659Z,26.37
2016-09-28T00:42:25.269Z,26.44
2016-09-28T00:43:05.912Z,26.45
2016-09-28T00:43:46.620Z,26.36
2016-09-28T00:44:27.300Z,26.4
2016-09-28T00:45:07.988Z,26.47
2016-09-28T00:45:48.672Z,26.37
2016-09-28T00:46:29.362Z,26.44
2016-09-28T00:47:10.101Z,26.39
2016-09-28T00:47:50.783Z,26.39
2016-09-28T00:48:31.468Z,26.45
2016-09-28T00:49:12.188Z,26.47
2016-09-28T00:49:52.877Z,26.4
2016-09-28T00:50:33.528Z,26.36
2016-09-28T00:51:14.209Z,26.45
2016-09-28T00:51:54.892Z,26.43
2016-09-28T00:52:35.589Z,26.5
2016-09-28T00:53:16.267Z,26.5
2016-09-28T00:53:56.917Z,26.33
2016-09-28T00:54:37.613Z,26.35
2016-09-28T00:55:18.276Z,26.37
2016-09-28T00:55:59.013Z,26.39
2016-09-28T00:56:39.656Z,26.36
2016-09-28T00:57:20.339Z,26.39
2016-09-28T00:58:01.043Z,26.45
2016-09-28T00:58:41.706Z,26.47
2016-09-28T00:59:22.363Z,26.37
2016-09-28T01:00:03.057Z,26.47
2016-09-28T01:00:43.728Z,26.48
2016-09-28T01:01:24.424Z,26.44
2016-09-28T01:02:05.140Z,26.4
2016-09-28T01:02:45.833Z,26.45
2016-09-28T01:03:26.499Z,26.5
2016-09-28T01:04:07.180Z,26.45
2016-09-28T01:04:47.845Z,26.45
2016-09-28T01:05:28.521Z,26.45
2016-09-28T01:06:09.201Z,26.43
2016-09-28T01:06:49.889Z,26.44
2016-09-28T01:07:30.610Z,26.45
2016-09-28T01:08:11.272Z,26.39
2016-09-28T01:08:51.956Z,26.37
2016-09-28T01:09:32.661Z,26.44
2016-09-28T01:10:13.319Z,26.45
2016-09-28T01:10:54.031Z,26.48
2016-09-28T01:11:34.715Z,26.39
2016-09-28T01:12:15.423Z,26.44
2016-09-28T01:12:56.105Z,26.43
2016-09-28T01:13:36.808Z,26.47
2016-09-28T01:14:17.529Z,26.44
2016-09-28T01:14:58.236Z,26.43
2016-09-28T01:15:38.951Z,26.47
2016-09-28T01:16:19.672Z,26.44
2016-09-28T01:17:00.356Z,26.45
2016-09-28T01:17:41.077Z,26.35
2016-09-28T01:18:21.712Z,26.45
2016-09-28T01:19:02.418Z,26.44
2016-09-28T01:19:43.194Z,26.39
2016-09-28T01:20:23.878Z,26.39
2016-09-28T01:21:04.551Z,26.47
2016-09-28T01:21:45.312Z,26.37
2016-09-28T01:22:25.961Z,26.48
2016-09-28T01:23:06.633Z,26.52
2016-09-28T01:23:47.326Z,26.39
2016-09-28T01:24:27.977Z,26.48
2016-09-28T01:25:08.671Z,26.37
2016-09-28T01:25:49.342Z,26.39
2016-09-28T01:26:30.069Z,26.43
2016-09-28T01:27:10.704Z,26.48
2016-09-28T01:27:51.401Z,26.39
2016-09-28T01:28:32.056Z,26.37
2016-09-28T01:29:12.804Z,26.44
2016-09-28T01:29:53.464Z,26.5
2016-09-28T01:30:34.175Z,26.48
2016-09-28T01:31:14.881Z,26.51
2016-09-28T01:31:55.577Z,26.5
2016-09-28T01:32:36.263Z,26.47
2016-09-28T01:33:16.946Z,26.44
2016-09-28T01:33:57.627Z,26.5
2016-09-28T01:34:38.261Z,26.5
2016-09-28T01:35:18.968Z,26.48
2016-09-28T01:35:59.665Z,26.43
2016-09-28T01:36:40.402Z,26.45
2016-09-28T01:37:21.136Z,26.48
2016-09-28T01:38:01.808Z,26.52
2016-09-28T01:38:42.498Z,26.45
2016-09-28T01:39:23.168Z,26.52
2016-09-28T01:40:03.873Z,26.5
2016-09-28T01:40:44.543Z,26.44
2016-09-28T01:41:25.209Z,26.37
2016-09-28T01:42:05.906Z,26.43
2016-09-28T01:42:46.587Z,26.52
2016-09-28T01:43:27.244Z,26.52
2016-09-28T01:44:07.911Z,26.45
2016-09-28T01:44:48.625Z,26.43
2016-09-28T01:45:29.322Z,26.43
2016-09-28T01:46:10.010Z,26.48
2016-09-28T01:46:50.677Z,26.48
2016-09-28T01:47:31.395Z,26.48
2016-09-28T01:48:12.093Z,26.47
2016-09-28T01:48:52.793Z,26.52
2016-09-28T01:49:33.489Z,26.5
2016-09-28T01:50:14.180Z,26.39
2016-09-28T01:50:54.819Z,26.47
2016-09-28T01:51:35.532Z,26.47
2016-09-28T01:52:16.245Z,26.48
2016-09-28T01:52:56.963Z,26.37
2016-09-28T01:53:37.671Z,26.4
2016-09-28T01:54:18.368Z,26.44
2016-09-28T01:54:59.065Z,26.51
2016-09-28T01:55:39.776Z,26.52
2016-09-28T01:56:20.505Z,26.48
2016-09-28T01:57:01.157Z,26.52
2016-09-28T01:57:41.873Z,26.54
2016-09-28T01:58:22.606Z,26.48
2016-09-28T01:59:03.250Z,26.45
2016-09-28T01:59:43.979Z,26.47
2016-09-28T02:00:24.669Z,26.4
2016-09-28T02:01:05.370Z,26.48
2016-09-28T02:01:46.015Z,26.51
2016-09-28T02:02:26.715Z,26.45
2016-09-28T02:03:07.439Z,26.45
2016-09-28T02:03:48.155Z,26.54
2016-09-28T02:04:28.847Z,26.44
2016-09-28T02:05:09.519Z,26.54
2016-09-28T02:05:50.150Z,26.4
2016-09-28T02:06:30.791Z,26.45
2016-09-28T02:07:11.478Z,26.51
2016-09-28T02:07:52.150Z,26.47
2016-09-28T02:08:32.829Z,26.47
2016-09-28T02:09:13.525Z,26.5
2016-09-28T02:09:54.221Z,26.45
2016-09-28T02:10:34.889Z,26.44
2016-09-28T02:11:15.536Z,26.47
2016-09-28T02:11:57.009Z,26.51
2016-09-28T02:12:37.678Z,26.51
2016-09-28T02:13:18.412Z,26.44
2016-09-28T02:13:59.120Z,26.39
2016-09-28T02:14:39.788Z,26.48
2016-09-28T02:15:20.503Z,26.44
2016-09-28T02:16:01.187Z,26.47
2016-09-28T02:16:41.893Z,26.51
2016-09-28T02:17:22.597Z,26.51
2016-09-28T02:18:03.253Z,26.45
2016-09-28T02:18:44.001Z,26.52
2016-09-28T02:19:24.695Z,26.48
2016-09-28T02:20:05.363Z,26.51
2016-09-28T02:20:46.090Z,26.5
2016-09-28T02:21:26.757Z,26.54
2016-09-28T02:22:07.493Z,26.5
2016-09-28T02:22:48.160Z,26.51
2016-09-28T02:23:28.822Z,26.47
2016-09-28T02:24:09.553Z,26.54
2016-09-28T02:24:50.228Z,26.47
2016-09-28T02:25:30.894Z,26.48
2016-09-28T02:26:11.594Z,26.44
2016-09-28T02:26:52.251Z,26.5
2016-09-28T02:27:32.906Z,26.44
2016-09-28T02:28:13.653Z,26.45
2016-09-28T02:28:54.338Z,26.51
2016-09-28T02:29:34.967Z,26.52
2016-09-28T02:30:15.630Z,26.54
2016-09-28T02:30:56.332Z,26.51
2016-09-28T02:31:37.034Z,26.47
2016-09-28T02:32:17.737Z,26.48
2016-09-28T02:32:58.442Z,26.54
2016-09-28T02:33:39.128Z,26.45
2016-09-28T02:34:19.830Z,26.47
2016-09-28T02:35:00.456Z,26.52
2016-09-28T02:35:41.199Z,26.51
2016-09-28T02:36:21.923Z,26.51
2016-09-28T02:37:02.620Z,26.47
2016-09-28T02:37:43.313Z,26.5
2016-09-28T02:38:24.022Z,26.55
2016-09-28T02:39:04.722Z,26.51
2016-09-28T02:39:45.415Z,26.5
2016-09-28T02:40:26.138Z,26.54
2016-09-28T02:41:06.856Z,26.45
2016-09-28T02:41:47.555Z,26.5
2016-09-28T02:42:28.223Z,26.55
2016-09-28T02:43:08.942Z,26.5
2016-09-28T02:43:49.629Z,26.51
2016-09-28T02:44:30.289Z,26.57
2016-09-28T02:45:11.016Z,26.48
2016-09-28T02:45:51.709Z,26.52
2016-09-28T02:46:32.387Z,26.47
2016-09-28T02:47:13.178Z,26.48
2016-09-28T02:47:53.850Z,26.51
2016-09-28T02:48:34.566Z,26.51
2016-09-28T02:49:15.225Z,26.52
2016-09-28T02:49:55.907Z,26.47
2016-09-28T02:50:36.568Z,26.45
2016-09-28T02:51:17.229Z,26.48
2016-09-28T02:51:57.932Z,26.48
2016-09-28T02:52:38.645Z,26.51
2016-09-28T02:53:19.314Z,26.48
2016-09-28T02:53:59.990Z,26.47
2016-09-28T02:54:40.712Z,26.48
2016-09-28T02:55:21.390Z,26.44
2016-09-28T02:56:02.075Z,26.54
2016-09-28T02:56:42.788Z,26.47
2016-09-28T02:57:23.463Z,26.51
2016-09-28T02:58:04.117Z,26.48
2016-09-28T02:58:44.951Z,26.47
2016-09-28T02:59:25.638Z,26.47
2016-09-28T03:00:06.331Z,26.51
2016-09-28T03:00:46.981Z,26.45
2016-09-28T03:01:27.703Z,26.5
2016-09-28T03:02:08.339Z,26.47
2016-09-28T03:02:49.028Z,26.45
2016-09-28T03:03:29.710Z,26.47
2016-09-28T03:04:10.410Z,26.5
2016-09-28T03:04:51.100Z,26.48
2016-09-28T03:05:31.801Z,26.43
2016-09-28T03:06:12.506Z,26.48
2016-09-28T03:06:53.243Z,26.47
2016-09-28T03:07:33.897Z,26.44
2016-09-28T03:08:14.600Z,26.5
2016-09-28T03:08:55.296Z,26.48
2016-09-28T03:09:35.995Z,26.44
2016-09-28T03:10:16.684Z,26.51
2016-09-28T03:10:57.344Z,26.43
2016-09-28T03:11:38.048Z,26.48
2016-09-28T03:12:18.759Z,26.44
2016-09-28T03:12:59.436Z,26.45
2016-09-28T03:13:40.152Z,26.5
2016-09-28T03:14:20.899Z,26.39
2016-09-28T03:15:01.578Z,26.44
2016-09-28T03:15:42.294Z,26.48
2016-09-28T03:16:22.959Z,26.48
2016-09-28T03:17:03.650Z,26.48
2016-09-28T03:17:44.323Z,26.44
2016-09-28T03:18:25.062Z,26.5
2016-09-28T03:19:05.751Z,26.36
2016-09-28T03:19:46.494Z,26.47
2016-09-28T03:20:27.176Z,26.48
2016-09-28T03:21:07.865Z,26.48
2016-09-28T03:21:48.521Z,26.47
2016-09-28T03:22:29.197Z,26.4
2016-09-28T03:23:09.929Z,26.48
2016-09-28T03:23:50.615Z,26.39
2016-09-28T03:24:31.276Z,26.36
2016-09-28T03:25:11.994Z,26.48
2016-09-28T03:25:52.660Z,26.5
2016-09-28T03:26:33.376Z,26.4
2016-09-28T03:27:14.098Z,26.43
2016-09-28T03:27:54.801Z,26.44
2016-09-28T03:28:35.533Z,26.47
2016-09-28T03:29:16.240Z,26.45
2016-09-28T03:29:56.899Z,26.4
2016-09-28T03:30:37.679Z,26.35
2016-09-28T03:31:18.347Z,26.45
2016-09-28T03:31:59.024Z,26.36
2016-09-28T03:32:39.703Z,26.35
2016-09-28T03:33:20.413Z,26.45
2016-09-28T03:34:01.094Z,26.45
2016-09-28T03:34:41.756Z,26.39
2016-09-28T03:35:22.500Z,26.5
2016-09-28T03:36:03.239Z,26.44
2016-09-28T03:36:43.928Z,26.47
2016-09-28T03:37:24.603Z,26.33
2016-09-28T03:38:05.285Z,26.37
2016-09-28T03:38:45.953Z,26.4
2016-09-28T03:39:26.629Z,26.43
2016-09-28T03:40:07.310Z,26.45
2016-09-28T03:40:48.038Z,26.4
2016-09-28T03:41:28.751Z,26.48
2016-09-28T03:42:09.494Z,26.45
2016-09-28T03:42:50.119Z,26.36
2016-09-28T03:43:30.801Z,26.44
2016-09-28T03:44:11.523Z,26.39
2016-09-28T03:44:52.201Z,26.39
2016-09-28T03:45:32.847Z,26.4
2016-09-28T03:46:13.590Z,26.32
2016-09-28T03:46:54.248Z,26.44
2016-09-28T03:47:34.931Z,26.48
2016-09-28T03:48:15.591Z,26.43
2016-09-28T03:48:57.093Z,26.37
2016-09-28T03:49:36.952Z,26.45
2016-09-28T03:50:17.626Z,26.37
2016-09-28T03:50:58.294Z,26.36
2016-09-28T03:51:38.957Z,26.36
2016-09-28T03:52:19.634Z,26.45
2016-09-28T03:53:00.360Z,26.45
2016-09-28T03:53:41.079Z,26.33
2016-09-28T03:54:21.794Z,26.37
2016-09-28T03:55:02.522Z,26.39
2016-09-28T03:55:43.201Z,26.37
2016-09-28T03:56:23.898Z,26.37
2016-09-28T03:57:04.557Z,26.39
2016-09-28T03:57:45.216Z,26.43
2016-09-28T03:58:25.896Z,26.43
2016-09-28T03:59:06.577Z,26.44
2016-09-28T03:59:47.267Z,26.35
2016-09-28T04:00:28.007Z,26.4
2016-09-28T04:01:08.697Z,26.36
2016-09-28T04:01:49.419Z,26.4
2016-09-28T04:02:30.078Z,26.43
2016-09-28T04:03:10.761Z,26.4
2016-09-28T04:03:51.425Z,26.39
2016-09-28T04:04:32.112Z,26.36
2016-09-28T04:05:12.817Z,26.43
2016-09-28T04:05:53.511Z,26.29
2016-09-28T04:06:34.164Z,26.44
2016-09-28T04:07:14.888Z,26.33
2016-09-28T04:07:55.550Z,26.39
2016-09-28T04:08:36.202Z,26.36
2016-09-28T04:09:16.892Z,26.4
2016-09-28T04:09:57.583Z,26.4
2016-09-28T04:10:38.268Z,26.45
2016-09-28T04:11:18.977Z,26.48
2016-09-28T04:11:59.706Z,26.44
2016-09-28T04:12:40.387Z,26.37
2016-09-28T04:13:21.052Z,26.33
2016-09-28T04:14:01.802Z,26.47
2016-09-28T04:14:42.488Z,26.37
2016-09-28T04:15:23.197Z,26.44
2016-09-28T04:16:03.889Z,26.39
2016-09-28T04:16:44.579Z,26.45
2016-09-28T04:17:25.266Z,26.4
2016-09-28T04:18:05.927Z,26.43
2016-09-28T04:18:46.573Z,26.44
2016-09-28T04:19:27.263Z,26.43
2016-09-28T04:20:07.963Z,26.43
2016-09-28T04:20:48.702Z,26.45
2016-09-28T04:21:29.367Z,26.37
2016-09-28T04:22:10.091Z,26.37
2016-09-28T04:22:50.799Z,26.35
2016-09-28T04:23:31.468Z,26.32
2016-09-28T04:24:12.179Z,26.47
2016-09-28T04:24:52.875Z,26.43
2016-09-28T04:25:33.580Z,26.32
2016-09-28T04:26:14.285Z,26.32
2016-09-28T04:26:55.021Z,26.43
2016-09-28T04:27:35.707Z,26.37
2016-09-28T04:28:16.418Z,26.37
2016-09-28T04:28:57.046Z,26.39
2016-09-28T04:29:37.720Z,26.37
2016-09-28T04:30:18.401Z,26.39
2016-09-28T04:30:59.118Z,26.37
2016-09-28T04:31:39.795Z,26.44
2016-09-28T04:32:20.475Z,26.39
2016-09-28T04:33:01.134Z,26.39
2016-09-28T04:33:41.817Z,26.35
2016-09-28T04:34:22.518Z,26.35
2016-09-28T04:35:03.210Z,26.39
2016-09-28T04:35:43.960Z,26.39
2016-09-28T04:36:24.596Z,26.39
2016-09-28T04:37:05.289Z,26.43
2016-09-28T04:37:45.988Z,26.36
2016-09-28T04:38:26.692Z,26.47
2016-09-28T04:39:07.375Z,26.44
2016-09-28T04:39:48.110Z,26.44
2016-09-28T04:40:28.781Z,26.39
2016-09-28T04:41:09.481Z,26.43
2016-09-28T04:41:50.142Z,26.4
2016-09-28T04:42:30.838Z,26.37
2016-09-28T04:43:11.550Z,26.36
2016-09-28T04:43:52.243Z,26.43
2016-09-28T04:44:32.914Z,26.4
2016-09-28T04:45:13.586Z,26.48
2016-09-28T04:45:54.234Z,26.33
2016-09-28T04:46:34.910Z,26.44
2016-09-28T04:47:15.570Z,26.36
2016-09-28T04:47:56.269Z,26.37
2016-09-28T04:48:36.945Z,26.39
2016-09-28T04:49:17.659Z,26.37
2016-09-28T04:49:58.350Z,26.43
2016-09-28T04:50:39.204Z,26.39
2016-09-28T04:51:19.914Z,26.33
2016-09-28T04:52:00.581Z,26.35
2016-09-28T04:52:41.288Z,26.4
2016-09-28T04:53:22.059Z,26.39
2016-09-28T04:54:02.735Z,26.44
2016-09-28T04:54:43.423Z,26.43
2016-09-28T04:55:24.191Z,26.44
2016-09-28T04:56:04.857Z,26.4
2016-09-28T04:56:45.585Z,26.43
2016-09-28T04:57:26.285Z,26.44
2016-09-28T04:58:06.936Z,26.39
2016-09-28T04:58:47.651Z,26.43
2016-09-28T04:59:28.314Z,26.36
2016-09-28T05:00:09.084Z,26.37
2016-09-28T05:00:49.761Z,26.44
2016-09-28T05:01:30.485Z,26.39
2016-09-28T05:02:11.145Z,26.47
2016-09-28T05:02:51.833Z,26.45
2016-09-28T05:03:32.521Z,26.45
2016-09-28T05:04:13.184Z,26.47
2016-09-28T05:04:53.864Z,26.45
2016-09-28T05:05:34.591Z,26.5
2016-09-28T05:06:15.361Z,26.54
2016-09-28T05:06:56.043Z,26.4
2016-09-28T05:07:36.757Z,26.4
2016-09-28T05:08:17.478Z,26.35
2016-09-28T05:08:58.169Z,26.47
2016-09-28T05:09:38.900Z,26.51
2016-09-28T05:10:19.552Z,26.45
2016-09-28T05:11:00.232Z,26.44
2016-09-28T05:11:40.909Z,26.45
2016-09-28T05:12:21.579Z,26.45
2016-09-28T05:13:02.255Z,26.43
2016-09-28T05:13:42.923Z,26.52
2016-09-28T05:14:23.578Z,26.39
2016-09-28T05:15:04.280Z,26.5
2016-09-28T05:15:45.002Z,26.5
2016-09-28T05:16:25.641Z,26.43
2016-09-28T05:17:06.300Z,26.48
2016-09-28T05:17:46.942Z,26.45
2016-09-28T05:18:27.624Z,26.5
2016-09-28T05:19:08.345Z,26.39
2016-09-28T05:19:49.046Z,26.55
2016-09-28T05:20:29.735Z,26.48
2016-09-28T05:21:10.443Z,26.44
2016-09-28T05:21:51.144Z,26.52
2016-09-28T05:22:31.821Z,26.47
2016-09-28T05:23:12.558Z,26.45
2016-09-28T05:23:53.245Z,26.51
2016-09-28T05:24:33.973Z,26.45
2016-09-28T05:25:14.662Z,26.47
2016-09-28T05:25:55.380Z,26.48
2016-09-28T05:26:36.069Z,26.5
2016-09-28T05:27:16.759Z,26.47
2016-09-28T05:27:57.458Z,26.48
2016-09-28T05:28:38.123Z,26.45
2016-09-28T05:29:18.847Z,26.48
2016-09-28T05:29:59.523Z,26.48
2016-09-28T05:30:40.211Z,26.51
2016-09-28T05:31:20.924Z,26.48
2016-09-28T05:32:01.610Z,26.52
2016-09-28T05:32:42.318Z,26.48
2016-09-28T05:33:22.978Z,26.47
2016-09-28T05:34:03.686Z,26.48
2016-09-28T05:34:44.370Z,26.54
2016-09-28T05:35:25.051Z,26.48
2016-09-28T05:36:05.745Z,26.52
2016-09-28T05:36:46.459Z,26.47
2016-09-28T05:37:27.191Z,26.54
2016-09-28T05:38:07.856Z,26.54
2016-09-28T05:38:48.491Z,26.47
2016-09-28T05:39:29.123Z,26.48
2016-09-28T05:40:09.826Z,26.5
2016-09-28T05:40:50.504Z,26.48
2016-09-28T05:41:31.224Z,26.54
2016-09-28T05:42:11.890Z,26.5
2016-09-28T05:42:52.545Z,26.48
2016-09-28T05:43:33.229Z,26.52
2016-09-28T05:44:13.887Z,26.51
2016-09-28T05:44:54.575Z,26.5
2016-09-28T05:45:35.219Z,26.5
2016-09-28T05:46:15.914Z,26.54
2016-09-28T05:46:56.598Z,26.51
2016-09-28T05:47:37.318Z,26.5
2016-09-28T05:48:17.992Z,26.57
2016-09-28T05:48:58.638Z,26.5
2016-09-28T05:49:39.404Z,26.48
2016-09-28T05:50:20.097Z,26.52
2016-09-28T05:51:00.768Z,26.48
2016-09-28T05:51:41.459Z,26.52
2016-09-28T05:52:22.192Z,26.54
2016-09-28T05:53:02.884Z,26.52
2016-09-28T05:53:43.599Z,26.48
2016-09-28T05:54:24.333Z,26.47
2016-09-28T05:55:05.014Z,26.54
2016-09-28T05:55:45.727Z,26.52
2016-09-28T05:56:26.379Z,26.58
2016-09-28T05:57:07.034Z,26.55
2016-09-28T05:57:47.750Z,26.52
2016-09-28T05:58:28.445Z,26.55
2016-09-28T05:59:09.104Z,26.5
2016-09-28T05:59:49.779Z,26.54
2016-09-28T06:00:30.551Z,26.5
2016-09-28T06:01:12.250Z,26.52
2016-09-28T06:01:53.623Z,26.5
2016-09-28T06:02:34.248Z,26.51
2016-09-28T06:03:14.973Z,26.51
2016-09-28T06:03:55.638Z,26.57
2016-09-28T06:04:36.374Z,26.52
2016-09-28T06:05:17.058Z,26.6
2016-09-28T06:05:57.731Z,26.6
2016-09-28T06:06:38.478Z,26.54
2016-09-28T06:07:19.168Z,26.45
2016-09-28T06:07:59.833Z,26.54
2016-09-28T06:08:40.576Z,26.55
2016-09-28T06:09:21.275Z,26.54
2016-09-28T06:10:01.942Z,26.57
2016-09-28T06:10:42.630Z,26.51
2016-09-28T06:11:23.312Z,26.57
2016-09-28T06:12:04.028Z,26.62
2016-09-28T06:12:44.702Z,26.62
2016-09-28T06:13:25.354Z,26.6
2016-09-28T06:14:06.014Z,26.55
2016-09-28T06:14:46.759Z,26.62
2016-09-28T06:15:27.450Z,26.6
2016-09-28T06:16:08.124Z,26.6
2016-09-28T06:16:48.824Z,26.63
2016-09-28T06:17:29.540Z,26.6
2016-09-28T06:18:10.247Z,26.55
2016-09-28T06:18:50.884Z,26.58
2016-09-28T06:19:31.533Z,26.63
2016-09-28T06:20:12.307Z,26.63
2016-09-28T06:20:53.041Z,26.58
2016-09-28T06:21:33.704Z,26.57
2016-09-28T06:22:14.405Z,26.58
2016-09-28T06:22:55.106Z,26.54
2016-09-28T06:23:35.751Z,26.37
2016-09-28T06:24:16.462Z,26.3
2016-09-28T06:24:57.116Z,26.17
2016-09-28T06:25:37.795Z,26.05
2016-09-28T06:26:18.481Z,25.87
2016-09-28T06:26:59.203Z,25.73
2016-09-28T06:27:39.883Z,25.5
2016-09-28T06:28:20.546Z,25.3
2016-09-28T06:29:01.264Z,25.06
2016-09-28T06:29:41.956Z,25
2016-09-28T06:30:22.631Z,24.9
2016-09-28T06:31:03.317Z,24.53
2016-09-28T06:31:43.997Z,24.27
2016-09-28T06:32:24.705Z,24.09
2016-09-28T06:33:05.399Z,23.94
2016-09-28T06:33:46.081Z,23.78
2016-09-28T06:34:26.773Z,23.6
2016-09-28T06:35:07.432Z,23.6
2016-09-28T06:35:48.144Z,23.47
2016-09-28T06:36:28.798Z,23.48
2016-09-28T06:37:09.532Z,23.43
2016-09-28T06:37:50.235Z,23.27
2016-09-28T06:38:30.934Z,23.22
2016-09-28T06:39:11.605Z,23.22
2016-09-28T06:39:52.297Z,23.25
2016-09-28T06:40:32.999Z,23.13
2016-09-28T06:41:13.705Z,23.16
2016-09-28T06:41:54.426Z,23.33
2016-09-28T06:42:35.146Z,23.25
2016-09-28T06:43:15.926Z,23.16
2016-09-28T06:43:56.623Z,23.13
2016-09-28T06:44:37.325Z,23.15
2016-09-28T06:45:18.062Z,23.16
2016-09-28T06:45:58.703Z,23.02
2016-09-28T06:46:39.403Z,22.98
2016-09-28T06:47:20.155Z,23.02
2016-09-28T06:48:00.801Z,23
2016-09-28T06:48:41.441Z,22.88
2016-09-28T06:49:22.155Z,22.92
2016-09-28T06:50:02.808Z,22.98
2016-09-28T06:50:43.478Z,23.09
2016-09-28T06:51:24.153Z,22.95
2016-09-28T06:52:04.857Z,22.91
2016-09-28T06:52:45.515Z,22.85
2016-09-28T06:53:26.251Z,22.86
2016-09-28T06:54:06.966Z,22.97
2016-09-28T06:54:47.685Z,23.1
2016-09-28T06:55:28.316Z,23.09
2016-09-28T06:56:09.021Z,23.19
2016-09-28T06:56:49.702Z,23.13
2016-09-28T06:57:30.418Z,23.17
2016-09-28T06:58:11.114Z,23.22
2016-09-28T06:58:51.816Z,23.12
2016-09-28T06:59:32.545Z,23.19
2016-09-28T07:00:13.269Z,23.19
2016-09-28T07:00:53.972Z,23.04
2016-09-28T07:01:34.613Z,23.15
2016-09-28T07:02:15.286Z,23.1
2016-09-28T07:02:56.003Z,23.1
2016-09-28T07:03:36.651Z,23.19
2016-09-28T07:04:17.396Z,23.25
2016-09-28T07:04:58.066Z,23.15
2016-09-28T07:05:38.730Z,23.23
2016-09-28T07:06:19.451Z,23.22
2016-09-28T07:07:00.140Z,23.23
2016-09-28T07:07:40.825Z,23.23
2016-09-28T07:08:21.518Z,23.38
2016-09-28T07:09:02.229Z,23.35
2016-09-28T07:09:43.110Z,23.27
2016-09-28T07:10:23.768Z,23.38
2016-09-28T07:11:04.447Z,23.36
2016-09-28T07:11:45.122Z,23.36
2016-09-28T07:12:25.872Z,23.4
2016-09-28T07:13:06.521Z,23.47
2016-09-28T07:13:47.201Z,23.46
2016-09-28T07:14:27.873Z,23.42
2016-09-28T07:15:08.629Z,23.42
2016-09-28T07:15:49.260Z,23.5
2016-09-28T07:16:29.940Z,23.51
2016-09-28T07:17:10.666Z,23.47
2016-09-28T07:17:51.349Z,23.4
2016-09-28T07:18:31.990Z,23.4
2016-09-28T07:19:12.706Z,23.53
2016-09-28T07:19:53.410Z,23.4
2016-09-28T07:20:34.052Z,23.47
2016-09-28T07:21:14.720Z,23.5
2016-09-28T07:21:55.468Z,23.55
2016-09-28T07:22:36.184Z,23.61
2016-09-28T07:23:16.887Z,23.68
2016-09-28T07:23:57.617Z,23.7
2016-09-28T07:24:38.346Z,23.66
2016-09-28T07:25:19.057Z,23.6
2016-09-28T07:25:59.832Z,23.68
2016-09-28T07:26:40.516Z,23.7
2016-09-28T07:27:21.204Z,23.75
2016-09-28T07:28:03.207Z,23.76
2016-09-28T07:28:43.289Z,23.79
2016-09-28T07:29:23.945Z,23.79
2016-09-28T07:30:04.654Z,23.83
2016-09-28T07:30:45.359Z,23.68
2016-09-28T07:31:26.067Z,23.76
2016-09-28T07:32:06.744Z,23.7
2016-09-28T07:32:47.500Z,23.78
2016-09-28T07:33:28.196Z,23.78
2016-09-28T07:34:08.868Z,23.84
2016-09-28T07:34:49.599Z,23.83
2016-09-28T07:35:30.309Z,23.8
2016-09-28T07:36:11.017Z,23.84
2016-09-28T07:36:51.698Z,23.76
2016-09-28T07:37:32.411Z,23.73
2016-09-28T07:38:13.086Z,23.78
2016-09-28T07:38:53.952Z,23.8
2016-09-28T07:39:34.598Z,23.97
2016-09-28T07:40:15.325Z,23.93
2016-09-28T07:40:56.179Z,23.93
2016-09-28T07:41:36.823Z,23.98
2016-09-28T07:42:17.501Z,24
2016-09-28T07:42:58.255Z,23.97
2016-09-28T07:43:38.911Z,23.95
2016-09-28T07:44:19.625Z,23.93
2016-09-28T07:45:00.357Z,23.9
2016-09-28T07:45:41.047Z,23.95
2016-09-28T07:46:21.772Z,24
2016-09-28T07:47:02.472Z,24.02
2016-09-28T07:47:43.191Z,24.02
2016-09-28T07:48:23.915Z,23.9
2016-09-28T07:49:04.619Z,23.93
2016-09-28T07:49:45.326Z,23.94
2016-09-28T07:50:26.881Z,24
2016-09-28T07:51:07.549Z,23.9
2016-09-28T07:51:48.241Z,23.91
2016-09-28T07:52:29.007Z,23.9
2016-09-28T07:53:09.736Z,24.02
2016-09-28T07:53:50.440Z,24.08
2016-09-28T07:54:31.145Z,24.08
2016-09-28T07:55:11.860Z,24.09
2016-09-28T07:55:52.517Z,23.95
2016-09-28T07:56:33.171Z,24.08
2016-09-28T07:57:13.910Z,24.03
2016-09-28T07:57:54.584Z,24.05
2016-09-28T07:58:35.308Z,24.1
2016-09-28T07:59:15.962Z,24.16
2016-09-28T07:59:56.689Z,24.21
2016-09-28T08:00:37.421Z,24.3
2016-09-28T08:01:18.114Z,24.25
2016-09-28T08:01:58.781Z,24.3
2016-09-28T08:02:39.517Z,24.31
2016-09-28T08:03:20.199Z,24.39
2016-09-28T08:04:00.871Z,24.32
2016-09-28T08:04:41.549Z,24.16
2016-09-28T08:05:22.279Z,24.12
2016-09-28T08:06:02.921Z,24.1
2016-09-28T08:06:43.625Z,24.03
2016-09-28T08:07:24.334Z,23.88
2016-09-28T08:08:05.059Z,23.76
2016-09-28T08:08:46.722Z,23.65
2016-09-28T08:09:26.440Z,23.68
2016-09-28T08:10:07.144Z,23.58
2016-09-28T08:10:47.890Z,23.72
2016-09-28T08:11:28.602Z,23.5
2016-09-28T08:12:09.314Z,23.51
2016-09-28T08:12:50.045Z,23.5
2016-09-28T08:13:30.758Z,23.47
2016-09-28T08:14:11.476Z,23.42
2016-09-28T08:14:52.204Z,23.31
2016-09-28T08:15:32.884Z,23.35
2016-09-28T08:16:13.578Z,23.23
2016-09-28T08:16:54.229Z,23.31
2016-09-28T08:17:34.893Z,23.27
2016-09-28T08:18:15.573Z,23.27
2016-09-28T08:18:56.319Z,23.15
2016-09-28T08:19:36.961Z,23.19
2016-09-28T08:20:17.695Z,23.17
2016-09-28T08:20:58.412Z,23.12
2016-09-28T08:21:39.119Z,23.22
2016-09-28T08:22:19.818Z,23.36
2016-09-28T08:23:00.559Z,23.46
2016-09-28T08:23:41.353Z,23.47
2016-09-28T08:24:21.993Z,23.55
2016-09-28T08:25:02.630Z,23.54
2016-09-28T08:25:44.277Z,23.57
2016-09-28T08:26:24.984Z,23.58
2016-09-28T08:27:05.698Z,23.63
2016-09-28T08:27:46.387Z,23.68
2016-09-28T08:28:27.113Z,23.63
2016-09-28T08:29:07.837Z,23.7
2016-09-28T08:29:48.536Z,23.84
2016-09-28T08:30:29.223Z,23.97
2016-09-28T08:31:09.903Z,23.95
2016-09-28T08:31:50.580Z,24.06
2016-09-28T08:32:31.318Z,24.15
2016-09-28T08:33:12.018Z,24.22
2016-09-28T08:33:52.784Z,24.32
2016-09-28T08:34:33.482Z,24.34
2016-09-28T08:35:14.207Z,24.39
2016-09-28T08:35:54.882Z,24.4
2016-09-28T08:36:35.548Z,24.43
2016-09-28T08:37:16.248Z,24.53
2016-09-28T08:37:56.970Z,24.61
2016-09-28T08:38:37.752Z,24.58
2016-09-28T08:39:18.508Z,24.64
2016-09-28T08:39:59.173Z,24.77
2016-09-28T08:40:39.860Z,24.83
2016-09-28T08:41:20.578Z,24.77
2016-09-28T08:42:01.299Z,24.9
2016-09-28T08:42:42.007Z,24.93
2016-09-28T08:43:22.676Z,24.87
2016-09-28T08:44:03.389Z,24.99
2016-09-28T08:44:44.072Z,25.05
2016-09-28T08:45:24.759Z,25.08
2016-09-28T08:46:05.447Z,25.09
2016-09-28T08:46:46.096Z,25.08